Ana Sayfa
METAR-TAF:

METAR-TAF

Havaalanları :

Belgrad Nikola Tesla Havalimanı

Belgrad, Sırbistan

Enlem: 44-49N, Boylam: 020-17E, yükseklik: 96 m

Güncel hava durumu gözlemi

Rapor saat 12:00 UTC de 19 dakika önce yapıldı.
Rüzgar doğudan 6 kt, doğu/kuzeydoğu ve güneydoğu arasında değişken
Sıcaklık 31°C
Nem 49%
Basınç 1024 hPa
Görüş mesafesi 10 km veya daha fazla
1500 m altında bulut yok ve kümülonimbus yok

METAR: LYBE 261200Z 10006KT 070V140 CAVOK 31/19 Q1024 NOSIG

Saat: 14:19 (12:19 UTC)

Tahmin

Rapor saat 11:00 UTC de 1 saat ve 19 dakika önce yapıldı.
Ayın 26'si saat 12 UTC'den ayın 27'si saat 12 UTC'ye kadar geçerli Tahmin
Rüzgar doğudan 8 kt
Görüş mesafesi 10 km veya daha fazla
4000 ft yükseklikte az bulutlu

TAF: LYBE 261100Z 2612/2712 08008KT 9999 FEW040 TX32/2613Z TN20/2703Z

4.000'den fazla havaalanı için hava durumu gözlemleri ve tahminleri (METAR ve TAF raporları).

Kullanılabilir istasyonlar harita üzerinde sarı ve kırmızı noktalarla gösterilir.

İstasyonun adını görmek için fareyi noktanın üzerinde gezdirin.

Sonrasında hava gözlem ve tahminlerini görmek için tıklayın.

Haritayı değiştirmek için: yaklaştırmak için siyah artı işaretli yeşil düğmeye ve uzaklaştırmak için de eksi işaretli düğmeye hızla tıklayın; bitişik haritalar için yeşil okları kullanın.


METAR-TAF: